F\v Desperado — FVFQ — position and weather

sailwx.info

Track history (hours):
 
Tides and Currents Weather Stations Pressure Air Temp Water Temp Dewpoint Dewpoint Depression Visibility Wind Speed Wind Dir Waves Ship Positions

F\v Desperado

Last reported at 2016-Feb-06 00:08 UTC. Time now 2016-Feb-13 02:31 UTC.
Position N 47°41' W 003°53'.

Type: Fishing. MMSI: 228312000.

Date/timePositionNaut miles runAvg speedWind from/ knotsBaromVisibWave heightAir tempDewpointWater temp
2016-Feb-06 00:08N 47°41' W 003°53'5 8.1
2016-Feb-05 23:32N 47°36' W 003°51'8 7.9
2016-Feb-05 22:33N 47°29' W 003°47'8 8.0
2016-Feb-05 21:32N 47°21' W 003°43'  
2016-Feb-03 15:29N 47°07' W 003°24'8 7.8
2016-Feb-03 14:31N 47°14' W 003°29'7 7.8
2016-Feb-03 13:33N 47°21' W 003°34'8 8.0
2016-Feb-03 12:33N 47°28' W 003°39'8 7.9
2016-Feb-03 11:33N 47°35' W 003°43'  
2016-Feb-01 05:30N 47°53' W 003°55'0 0.0
2016-Feb-01 04:29N 47°53' W 003°55'  
2016-Jan-29 17:06N 47°31' W 003°55'8 0.4
2016-Jan-28 21:17N 47°23' W 003°54'3 3.2
2016-Jan-28 20:26N 47°24' W 003°51'3 3.2
2016-Jan-28 19:33N 47°25' W 003°47'3 3.4
2016-Jan-28 18:33N 47°27' W 003°43'3 2.3
2016-Jan-28 17:29N 47°28' W 003°46'2 2.1
2016-Jan-28 16:33N 47°28' W 003°43'7 2.9
2016-Jan-28 14:12N 47°27' W 003°53'2 2.4
2016-Jan-28 13:31N 47°29' W 003°53'3 2.9
2016-Jan-28 12:20N 47°31' W 003°57'3 3.5
2016-Jan-28 11:33N 47°29' W 003°54'3 3.2
2016-Jan-28 10:33N 47°30' W 003°49'3 3.4
2016-Jan-28 09:33N 47°32' W 003°46'3 2.8
2016-Jan-28 08:33N 47°34' W 003°48'3 2.8
2016-Jan-28 07:32N 47°36' W 003°52'  
Track history (hours):
 
Tides and Currents Weather Stations Pressure Air Temp Water Temp Dewpoint Dewpoint Depression Visibility Wind Speed Wind Dir Waves Ship Positions

F\v Desperado

Last reported at 2016-Feb-06 00:08 UTC. Time now 2016-Feb-13 02:31 UTC.
Position N 47°41' W 003°53'.

Type: Fishing. MMSI: 228312000.

Date/timePositionNaut miles runAvg speedWind from/ knotsBaromVisibWave heightAir tempDewpointWater temp
2016-Feb-06 00:08N 47°41' W 003°53'5 8.1
2016-Feb-05 23:32N 47°36' W 003°51'8 7.9
2016-Feb-05 22:33N 47°29' W 003°47'8 8.0
2016-Feb-05 21:32N 47°21' W 003°43'  
2016-Feb-03 15:29N 47°07' W 003°24'8 7.8
2016-Feb-03 14:31N 47°14' W 003°29'7 7.8
2016-Feb-03 13:33N 47°21' W 003°34'8 8.0
2016-Feb-03 12:33N 47°28' W 003°39'8 7.9
2016-Feb-03 11:33N 47°35' W 003°43'  
2016-Feb-01 05:30N 47°53' W 003°55'0 0.0
2016-Feb-01 04:29N 47°53' W 003°55'  
2016-Jan-29 17:06N 47°31' W 003°55'8 0.4
2016-Jan-28 21:17N 47°23' W 003°54'3 3.2
2016-Jan-28 20:26N 47°24' W 003°51'3 3.2
2016-Jan-28 19:33N 47°25' W 003°47'3 3.4
2016-Jan-28 18:33N 47°27' W 003°43'3 2.3
2016-Jan-28 17:29N 47°28' W 003°46'2 2.1
2016-Jan-28 16:33N 47°28' W 003°43'7 2.9
2016-Jan-28 14:12N 47°27' W 003°53'2 2.4
2016-Jan-28 13:31N 47°29' W 003°53'3 2.9
2016-Jan-28 12:20N 47°31' W 003°57'3 3.5
2016-Jan-28 11:33N 47°29' W 003°54'3 3.2
2016-Jan-28 10:33N 47°30' W 003°49'3 3.4
2016-Jan-28 09:33N 47°32' W 003°46'3 2.8
2016-Jan-28 08:33N 47°34' W 003°48'3 2.8
2016-Jan-28 07:32N 47°36' W 003°52'  

Dump ship's entire track history